createdAt,value
2017-01-23T00:00:53.408Z,-7.36
2017-01-23T00:02:02.062Z,-7.19
2017-01-23T00:03:10.717Z,-7.23
2017-01-23T00:04:19.365Z,-7.29
2017-01-23T00:05:28.021Z,-7.25
2017-01-23T00:06:36.680Z,-7.31
2017-01-23T00:07:45.337Z,-7.26
2017-01-23T00:08:53.985Z,-7.08
2017-01-23T00:10:02.634Z,-6.82
2017-01-23T00:11:11.278Z,-6.59
2017-01-23T00:12:19.944Z,-6.5
2017-01-23T00:13:28.594Z,-6.59
2017-01-23T00:14:37.246Z,-6.71
2017-01-23T00:15:45.897Z,-6.77
2017-01-23T00:16:54.543Z,-6.87
2017-01-23T00:18:03.192Z,-7.04
2017-01-23T00:19:11.872Z,-7.08
2017-01-23T00:20:20.527Z,-6.92
2017-01-23T00:21:29.170Z,-6.87
2017-01-23T00:22:37.815Z,-7.04
2017-01-23T00:23:46.466Z,-7
2017-01-23T00:24:55.114Z,-7.13
2017-01-23T00:26:03.762Z,-7.4
2017-01-23T00:27:12.412Z,-7.52
2017-01-23T00:28:21.053Z,-7.57
2017-01-23T00:29:29.696Z,-7.62
2017-01-23T00:30:38.347Z,-7.55
2017-01-23T00:31:46.995Z,-7.34
2017-01-23T00:32:55.646Z,-7.43
2017-01-23T00:34:04.300Z,-7.6
2017-01-23T00:35:12.951Z,-7.55
2017-01-23T00:36:21.597Z,-7.46
2017-01-23T00:37:30.244Z,-7.41
2017-01-23T00:38:38.898Z,-7.44
2017-01-23T00:39:47.547Z,-7.46
2017-01-23T00:40:56.189Z,-7.55
2017-01-23T00:42:04.838Z,-7.48
2017-01-23T00:43:13.481Z,-7.43
2017-01-23T00:44:22.134Z,-7.29
2017-01-23T00:45:30.776Z,-7.46
2017-01-23T00:46:39.420Z,-7.6
2017-01-23T00:47:48.088Z,-7.6
2017-01-23T00:48:56.732Z,-7.34
2017-01-23T00:50:05.387Z,-7.34
2017-01-23T00:51:14.033Z,-7.25
2017-01-23T00:52:22.680Z,-7.29
2017-01-23T00:53:31.336Z,-7.33
2017-01-23T00:54:39.980Z,-7.12
2017-01-23T00:55:48.621Z,-7.13
2017-01-23T00:56:57.270Z,-7.11
2017-01-23T00:58:06.299Z,-7.19
2017-01-23T00:59:14.944Z,-7.07
2017-01-23T01:00:23.590Z,-6.94
2017-01-23T01:01:32.241Z,-7.01
2017-01-23T01:02:40.889Z,-6.86
2017-01-23T01:03:49.539Z,-6.89
2017-01-23T01:04:58.212Z,-6.66
2017-01-23T01:06:06.866Z,-6.66
2017-01-23T01:07:15.508Z,-6.71
2017-01-23T01:08:24.163Z,-6.94
2017-01-23T01:09:32.813Z,-6.89
2017-01-23T01:10:41.479Z,-7.01
2017-01-23T01:11:50.131Z,-7.13
2017-01-23T01:12:58.804Z,-7.13
2017-01-23T01:14:07.454Z,-7.23
2017-01-23T01:15:16.104Z,-7.21
2017-01-23T01:16:24.752Z,-7.25
2017-01-23T01:17:33.394Z,-7.23
2017-01-23T01:18:42.043Z,-7.16
2017-01-23T01:19:50.689Z,-7.01
2017-01-23T01:20:59.341Z,-7.05
2017-01-23T01:22:07.985Z,-7.08
2017-01-23T01:23:16.642Z,-7.21
2017-01-23T01:24:25.283Z,-7.25
2017-01-23T01:25:33.929Z,-7.44
2017-01-23T01:26:42.570Z,-7.44
2017-01-23T01:27:51.220Z,-7.36
2017-01-23T01:28:59.863Z,-7.44
2017-01-23T01:30:08.514Z,-7.39
2017-01-23T01:31:17.158Z,-7.12
2017-01-23T01:32:25.805Z,-7.07
2017-01-23T01:33:34.446Z,-6.97
2017-01-23T01:34:43.098Z,-6.86
2017-01-23T01:35:51.747Z,-6.97
2017-01-23T01:37:00.395Z,-6.87
2017-01-23T01:38:09.427Z,-6.74
2017-01-23T01:39:18.074Z,-6.8
2017-01-23T01:40:26.721Z,-6.89
2017-01-23T01:41:35.369Z,-6.8
2017-01-23T01:42:44.016Z,-6.77
2017-01-23T01:43:52.660Z,-6.73
2017-01-23T01:45:01.306Z,-6.62
2017-01-23T01:46:09.960Z,-6.58
2017-01-23T01:47:18.603Z,-6.59
2017-01-23T01:48:27.281Z,-6.59
2017-01-23T01:49:35.956Z,-6.8
2017-01-23T01:50:44.602Z,-6.74
2017-01-23T01:51:53.257Z,-6.95
2017-01-23T01:53:01.908Z,-6.91
2017-01-23T01:54:10.579Z,-6.94
2017-01-23T01:55:19.227Z,-6.98
2017-01-23T01:56:27.904Z,-7.11
2017-01-23T01:57:36.553Z,-7
2017-01-23T01:58:45.197Z,-6.94
2017-01-23T01:59:54.247Z,-7
2017-01-23T02:01:02.899Z,-7.01
2017-01-23T02:02:11.546Z,-7.11
2017-01-23T02:03:20.196Z,-7.11
2017-01-23T02:04:28.841Z,-7.34
2017-01-23T02:05:37.487Z,-7.15
2017-01-23T02:06:46.132Z,-7.01
2017-01-23T02:07:54.780Z,-7.11
2017-01-23T02:09:03.433Z,-7.16
2017-01-23T02:10:12.082Z,-7.29
2017-01-23T02:11:20.725Z,-7.46
2017-01-23T02:12:29.368Z,-7.54
2017-01-23T02:13:38.039Z,-7.68
2017-01-23T02:14:46.682Z,-7.62
2017-01-23T02:15:55.357Z,-7.58
2017-01-23T02:17:04.014Z,-7.51
2017-01-23T02:18:12.659Z,-7.58
2017-01-23T02:19:21.309Z,-7.64
2017-01-23T02:20:29.961Z,-7.69
2017-01-23T02:21:38.608Z,-7.51
2017-01-23T02:22:47.251Z,-7.5
2017-01-23T02:23:55.904Z,-7.37
2017-01-23T02:25:04.550Z,-7.26
2017-01-23T02:26:13.194Z,-7.29
2017-01-23T02:27:22.227Z,-7.15
2017-01-23T02:28:30.881Z,-7.04
2017-01-23T02:29:39.520Z,-7.07
2017-01-23T02:30:48.170Z,-7.08
2017-01-23T02:31:56.855Z,-7.11
2017-01-23T02:33:05.504Z,-7
2017-01-23T02:34:14.151Z,-7.07
2017-01-23T02:35:22.802Z,-7.11
2017-01-23T02:36:31.449Z,-7.07
2017-01-23T02:37:40.096Z,-7.08
2017-01-23T02:38:48.743Z,-7.13
2017-01-23T02:39:57.386Z,-7.3
2017-01-23T02:41:06.037Z,-7.22
2017-01-23T02:42:14.683Z,-7.23
2017-01-23T02:43:23.338Z,-7.26
2017-01-23T02:44:32.368Z,-7.29
2017-01-23T02:45:41.018Z,-7.43
2017-01-23T02:46:49.672Z,-7.54
2017-01-23T02:47:58.319Z,-7.48
2017-01-23T02:49:06.999Z,-7.66
2017-01-23T02:50:15.647Z,-7.68
2017-01-23T02:51:24.294Z,-7.55
2017-01-23T02:52:32.939Z,-7.55
2017-01-23T02:53:41.582Z,-7.71
2017-01-23T02:54:50.234Z,-7.75
2017-01-23T02:55:58.881Z,-7.64
2017-01-23T02:57:07.531Z,-7.52
2017-01-23T02:58:16.172Z,-7.36
2017-01-23T02:59:24.819Z,-7.26
2017-01-23T03:00:33.466Z,-7.08
2017-01-23T03:01:42.111Z,-7.07
2017-01-23T03:02:50.758Z,-7.16
2017-01-23T03:03:59.417Z,-7.12
2017-01-23T03:05:08.065Z,-7.01
2017-01-23T03:06:16.722Z,-7.07
2017-01-23T03:07:25.368Z,-7.05
2017-01-23T03:08:34.057Z,-7.16
2017-01-23T03:09:42.707Z,-7.16
2017-01-23T03:10:51.357Z,-7.23
2017-01-23T03:12:00.005Z,-7.33
2017-01-23T03:13:08.658Z,-7.34
2017-01-23T03:14:17.305Z,-7.23
2017-01-23T03:15:25.949Z,-7.05
2017-01-23T03:16:34.595Z,-6.89
2017-01-23T03:17:43.244Z,-7.01
2017-01-23T03:18:51.893Z,-7.11
2017-01-23T03:20:00.537Z,-7.07
2017-01-23T03:21:09.211Z,-7.26
2017-01-23T03:22:17.853Z,-7.33
2017-01-23T03:23:26.499Z,-7.3
2017-01-23T03:24:35.145Z,-7.41
2017-01-23T03:25:43.791Z,-7.61
2017-01-23T03:26:52.438Z,-7.71
2017-01-23T03:28:01.103Z,-7.64
2017-01-23T03:29:09.749Z,-7.78
2017-01-23T03:30:18.397Z,-7.87
2017-01-23T03:31:27.040Z,-7.75
2017-01-23T03:32:35.686Z,-7.78
2017-01-23T03:33:44.331Z,-7.91
2017-01-23T03:34:52.977Z,-7.71
2017-01-23T03:36:01.620Z,-7.69
2017-01-23T03:37:10.295Z,-7.82
2017-01-23T03:38:18.945Z,-7.8
2017-01-23T03:39:27.593Z,-7.86
2017-01-23T03:40:36.237Z,-7.87
2017-01-23T03:41:44.884Z,-8.06
2017-01-23T03:42:53.529Z,-7.96
2017-01-23T03:44:02.200Z,-7.87
2017-01-23T03:45:10.845Z,-7.99
2017-01-23T03:46:19.502Z,-7.99
2017-01-23T03:47:28.155Z,-7.99
2017-01-23T03:48:36.802Z,-8.08
2017-01-23T03:49:45.448Z,-7.97
2017-01-23T03:50:54.094Z,-7.87
2017-01-23T03:52:02.745Z,-7.78
2017-01-23T03:53:11.393Z,-7.73
2017-01-23T03:54:20.041Z,-7.66
2017-01-23T03:55:28.689Z,-7.76
2017-01-23T03:56:37.333Z,-7.75
2017-01-23T03:57:46.020Z,-7.82
2017-01-23T03:58:54.666Z,-7.9
2017-01-23T04:00:03.320Z,-7.9
2017-01-23T04:01:11.967Z,-7.79
2017-01-23T04:02:20.612Z,-7.72
2017-01-23T04:03:29.261Z,-7.73
2017-01-23T04:04:37.913Z,-7.69
2017-01-23T04:05:46.559Z,-7.64
2017-01-23T04:06:55.201Z,-7.76
2017-01-23T04:08:03.856Z,-7.75
2017-01-23T04:09:12.508Z,-7.8
2017-01-23T04:10:21.156Z,-7.76
2017-01-23T04:11:29.803Z,-7.6
2017-01-23T04:12:38.452Z,-7.48
2017-01-23T04:13:47.102Z,-7.48
2017-01-23T04:14:55.773Z,-7.48
2017-01-23T04:16:04.426Z,-7.39
2017-01-23T04:17:13.075Z,-7.39
2017-01-23T04:18:21.724Z,-7.5
2017-01-23T04:19:30.374Z,-7.46
2017-01-23T04:20:39.023Z,-7.54
2017-01-23T04:21:47.671Z,-7.46
2017-01-23T04:22:56.317Z,-7.48
2017-01-23T04:24:04.964Z,-7.57
2017-01-23T04:25:13.614Z,-7.64
2017-01-23T04:26:22.259Z,-7.55
2017-01-23T04:27:30.900Z,-7.51
2017-01-23T04:28:39.555Z,-7.46
2017-01-23T04:29:48.202Z,-7.46
2017-01-23T04:30:56.846Z,-7.58
2017-01-23T04:32:05.498Z,-7.66
2017-01-23T04:33:14.151Z,-7.9
2017-01-23T04:34:22.796Z,-8.01
2017-01-23T04:35:31.442Z,-8.15
2017-01-23T04:36:40.093Z,-8.19
2017-01-23T04:37:48.752Z,-8.27
2017-01-23T04:38:57.400Z,-8.21
2017-01-23T04:40:06.051Z,-8.08
2017-01-23T04:41:14.696Z,-7.96
2017-01-23T04:42:23.364Z,-7.96
2017-01-23T04:43:32.030Z,-7.89
2017-01-23T04:44:40.676Z,-8.06
2017-01-23T04:45:49.322Z,-8.18
2017-01-23T04:46:57.980Z,-8.23
2017-01-23T04:48:06.628Z,-8.13
2017-01-23T04:49:15.271Z,-8.3
2017-01-23T04:50:23.915Z,-8.18
2017-01-23T04:51:32.557Z,-7.97
2017-01-23T04:52:41.209Z,-8.01
2017-01-23T04:53:49.867Z,-7.93
2017-01-23T04:54:58.512Z,-7.89
2017-01-23T04:56:07.156Z,-7.78
2017-01-23T04:57:15.801Z,-7.76
2017-01-23T04:58:24.448Z,-7.58
2017-01-23T04:59:33.124Z,-7.54
2017-01-23T05:00:41.771Z,-7.44
2017-01-23T05:01:50.416Z,-7.39
2017-01-23T05:02:59.067Z,-7.34
2017-01-23T05:04:07.721Z,-7.34
2017-01-23T05:05:16.369Z,-7.26
2017-01-23T05:06:25.011Z,-7.23
2017-01-23T05:07:33.662Z,-7.31
2017-01-23T05:08:42.313Z,-7.13
2017-01-23T05:09:50.955Z,-7.04
2017-01-23T05:10:59.606Z,-6.95
2017-01-23T05:12:08.251Z,-6.62
2017-01-23T05:13:16.900Z,-6.15
2017-01-23T05:14:25.550Z,-5.74
2017-01-23T05:15:34.191Z,-5.47
2017-01-23T05:16:42.833Z,-5.27
2017-01-23T05:17:51.479Z,-5.26
2017-01-23T05:19:00.124Z,-5.19
2017-01-23T05:20:08.775Z,-5.18
2017-01-23T05:21:17.424Z,-5.23
2017-01-23T05:22:26.076Z,-5.19
2017-01-23T05:23:34.727Z,-5.25
2017-01-23T05:24:43.374Z,-5.23
2017-01-23T05:25:52.022Z,-5.17
2017-01-23T05:27:00.671Z,-4.99
2017-01-23T05:28:09.320Z,-5.08
2017-01-23T05:29:17.967Z,-5.1
2017-01-23T05:30:26.609Z,-5.23
2017-01-23T05:31:35.254Z,-5.29
2017-01-23T05:32:43.904Z,-5.32
2017-01-23T05:33:52.552Z,-5.44
2017-01-23T05:35:01.199Z,-5.5
2017-01-23T05:36:09.848Z,-5.55
2017-01-23T05:37:18.505Z,-5.71
2017-01-23T05:38:27.150Z,-5.79
2017-01-23T05:39:35.795Z,-5.82
2017-01-23T05:40:44.447Z,-5.93
2017-01-23T05:41:53.095Z,-5.94
2017-01-23T05:43:01.742Z,-6.01
2017-01-23T05:44:10.394Z,-6.01
2017-01-23T05:45:19.038Z,-5.87
2017-01-23T05:46:27.692Z,-5.92
2017-01-23T05:47:36.338Z,-5.89
2017-01-23T05:48:44.983Z,-5.94
2017-01-23T05:49:53.627Z,-5.92
2017-01-23T05:51:02.275Z,-5.82
2017-01-23T05:52:10.921Z,-5.83
2017-01-23T05:53:19.569Z,-5.98
2017-01-23T05:54:28.221Z,-5.87
2017-01-23T05:55:36.868Z,-5.87
2017-01-23T05:56:45.519Z,-5.83
2017-01-23T05:57:54.165Z,-5.82
2017-01-23T05:59:02.812Z,-5.8
2017-01-23T06:00:11.458Z,-5.71
2017-01-23T06:01:20.105Z,-5.66
2017-01-23T06:02:28.745Z,-5.61
2017-01-23T06:03:37.391Z,-5.59
2017-01-23T06:04:46.038Z,-5.54
2017-01-23T06:05:54.690Z,-5.46
2017-01-23T06:07:03.340Z,-5.37
2017-01-23T06:08:11.992Z,-5.29
2017-01-23T06:09:20.650Z,-5.18
2017-01-23T06:10:29.297Z,-5
2017-01-23T06:11:37.946Z,-4.9
2017-01-23T06:12:46.596Z,-4.93
2017-01-23T06:13:55.246Z,-4.89
2017-01-23T06:15:03.889Z,-4.85
2017-01-23T06:16:12.534Z,-4.9
2017-01-23T06:17:21.187Z,-4.83
2017-01-23T06:18:29.835Z,-4.81
2017-01-23T06:19:38.488Z,-4.79
2017-01-23T06:20:47.135Z,-4.72
2017-01-23T06:21:55.787Z,-4.79
2017-01-23T06:23:04.460Z,-4.74
2017-01-23T06:24:13.112Z,-4.78
2017-01-23T06:25:21.764Z,-4.81
2017-01-23T06:26:30.410Z,-4.78
2017-01-23T06:27:39.057Z,-4.75
2017-01-23T06:28:47.702Z,-4.67
2017-01-23T06:29:56.362Z,-4.61
2017-01-23T06:31:05.012Z,-4.69
2017-01-23T06:32:13.659Z,-4.67
2017-01-23T06:33:22.304Z,-4.56
2017-01-23T06:34:30.959Z,-4.56
2017-01-23T06:35:39.613Z,-4.56
2017-01-23T06:36:48.294Z,-4.4
2017-01-23T06:37:56.939Z,-4.24
2017-01-23T06:39:05.967Z,-4.17
2017-01-23T06:40:14.614Z,-4.25
2017-01-23T06:41:23.260Z,-4.15
2017-01-23T06:42:31.908Z,-4.15
2017-01-23T06:43:40.561Z,-4.15
2017-01-23T06:44:49.205Z,-4.1
2017-01-23T06:45:57.875Z,-4.22
2017-01-23T06:47:06.554Z,-4.2
2017-01-23T06:48:15.204Z,-4.28
2017-01-23T06:49:23.851Z,-4.32
2017-01-23T06:50:32.499Z,-4.22
2017-01-23T06:51:41.163Z,-4.18
2017-01-23T06:52:49.807Z,-4.15
2017-01-23T06:53:58.458Z,-4.2
2017-01-23T06:55:07.201Z,-4.14
2017-01-23T06:56:15.855Z,-4.12
2017-01-23T06:57:24.510Z,-4.12
2017-01-23T06:58:33.161Z,-4.15
2017-01-23T06:59:41.807Z,-4.15
2017-01-23T07:00:50.469Z,-4.1
2017-01-23T07:01:59.121Z,-4.14
2017-01-23T07:03:07.769Z,-4.07
2017-01-23T07:04:16.414Z,-4.07
2017-01-23T07:05:25.063Z,-4.06
2017-01-23T07:06:33.717Z,-4.07
2017-01-23T07:07:42.367Z,-4.14
2017-01-23T07:08:51.018Z,-4.1
2017-01-23T07:09:59.664Z,-4.03
2017-01-23T07:11:08.312Z,-4.01
2017-01-23T07:12:16.965Z,-3.99
2017-01-23T07:13:25.615Z,-3.93
2017-01-23T07:14:34.272Z,-3.81
2017-01-23T07:15:42.919Z,-3.86
2017-01-23T07:16:51.571Z,-3.86
2017-01-23T07:18:00.220Z,-3.86
2017-01-23T07:19:08.869Z,-3.78
2017-01-23T07:20:17.514Z,-3.76
2017-01-23T07:21:26.161Z,-3.76
2017-01-23T07:22:34.814Z,-3.72
2017-01-23T07:23:43.463Z,-3.66
2017-01-23T07:24:52.111Z,-3.72
2017-01-23T07:26:00.753Z,-3.56
2017-01-23T07:27:09.411Z,-3.48
2017-01-23T07:28:18.060Z,-3.41
2017-01-23T07:29:26.710Z,-3.49
2017-01-23T07:30:35.366Z,-3.48
2017-01-23T07:31:44.010Z,-3.56
2017-01-23T07:32:52.655Z,-3.62
2017-01-23T07:34:01.351Z,-3.56
2017-01-23T07:35:10.000Z,-3.42
2017-01-23T07:36:18.653Z,-3.53
2017-01-23T07:37:27.297Z,-3.56
2017-01-23T07:38:35.942Z,-3.46
2017-01-23T07:39:44.601Z,-3.57
2017-01-23T07:40:53.277Z,-3.46
2017-01-23T07:42:01.930Z,-3.45
2017-01-23T07:43:10.994Z,-3.46
2017-01-23T07:44:19.645Z,-3.46
2017-01-23T07:45:28.300Z,-3.48
2017-01-23T07:46:36.951Z,-3.48
2017-01-23T07:47:45.603Z,-3.39
2017-01-23T07:48:54.252Z,-3.48
2017-01-23T07:50:02.907Z,-3.46
2017-01-23T07:51:11.574Z,-3.48
2017-01-23T07:52:20.224Z,-3.43
2017-01-23T07:53:28.875Z,-3.41
2017-01-23T07:54:37.524Z,-3.38
2017-01-23T07:55:46.181Z,-3.42
2017-01-23T07:56:54.831Z,-3.38
2017-01-23T07:58:03.480Z,-3.39
2017-01-23T07:59:12.129Z,-3.39
2017-01-23T08:00:20.778Z,-3.33
2017-01-23T08:01:29.425Z,-3.2
2017-01-23T08:02:38.076Z,-3.18
2017-01-23T08:03:46.740Z,-3.23
2017-01-23T08:04:55.392Z,-3.17
2017-01-23T08:06:04.042Z,-3.18
2017-01-23T08:07:12.692Z,-3.18
2017-01-23T08:08:21.337Z,-3
2017-01-23T08:09:29.988Z,-2.89
2017-01-23T08:10:38.640Z,-2.89
2017-01-23T08:11:47.341Z,-3.03
2017-01-23T08:12:55.988Z,-2.97
2017-01-23T08:14:04.637Z,-2.89
2017-01-23T08:15:13.292Z,-2.99
2017-01-23T08:16:21.939Z,-2.94
2017-01-23T08:17:30.587Z,-2.89
2017-01-23T08:18:39.273Z,-2.88
2017-01-23T08:19:47.920Z,-2.94
2017-01-23T08:20:56.584Z,-2.84
2017-01-23T08:22:05.231Z,-2.91
2017-01-23T08:23:13.882Z,-2.88
2017-01-23T08:24:22.535Z,-2.85
2017-01-23T08:25:31.182Z,-2.67
2017-01-23T08:26:39.829Z,-2.79
2017-01-23T08:27:48.478Z,-2.86
2017-01-23T08:28:57.125Z,-2.91
2017-01-23T08:30:05.775Z,-2.89
2017-01-23T08:31:14.429Z,-2.89
2017-01-23T08:32:23.081Z,-2.86
2017-01-23T08:33:31.727Z,-2.82
2017-01-23T08:34:40.374Z,-2.89
2017-01-23T08:35:49.024Z,-2.88
2017-01-23T08:36:57.677Z,-2.82
2017-01-23T08:38:06.328Z,-2.77
2017-01-23T08:39:14.982Z,-2.81
2017-01-23T08:40:23.631Z,-2.73
2017-01-23T08:41:32.284Z,-2.78
2017-01-23T08:42:40.926Z,-2.61
2017-01-23T08:43:49.573Z,-2.7
2017-01-23T08:44:58.224Z,-2.67
2017-01-23T08:46:06.879Z,-2.79
2017-01-23T08:47:15.535Z,-2.91
2017-01-23T08:48:24.186Z,-2.84
2017-01-23T08:49:33.221Z,-2.79
2017-01-23T08:50:41.877Z,-2.74
2017-01-23T08:51:50.529Z,-2.7
2017-01-23T08:52:59.176Z,-2.66
2017-01-23T08:54:07.825Z,-2.63
2017-01-23T08:55:16.475Z,-2.55
2017-01-23T08:56:25.123Z,-2.56
2017-01-23T08:57:33.770Z,-2.48
2017-01-23T08:58:42.415Z,-2.58
2017-01-23T08:59:51.064Z,-2.43
2017-01-23T09:00:59.720Z,-2.39
2017-01-23T09:02:08.369Z,-2.53
2017-01-23T09:03:17.015Z,-2.46
2017-01-23T09:04:25.663Z,-2.5
2017-01-23T09:05:34.308Z,-2.49
2017-01-23T09:06:42.958Z,-2.3
2017-01-23T09:07:51.609Z,-2.27
2017-01-23T09:09:00.259Z,-2.2
2017-01-23T09:10:08.917Z,-2.26
2017-01-23T09:11:17.563Z,-2.37
2017-01-23T09:12:26.208Z,-2.5
2017-01-23T09:13:34.859Z,-2.49
2017-01-23T09:14:43.510Z,-2.45
2017-01-23T09:15:52.161Z,-2.39
2017-01-23T09:17:00.811Z,-2.35
2017-01-23T09:18:09.458Z,-2.48
2017-01-23T09:19:18.112Z,-2.39
2017-01-23T09:20:26.764Z,-2.42
2017-01-23T09:21:35.412Z,-2.32
2017-01-23T09:22:44.060Z,-2.4
2017-01-23T09:23:52.716Z,-2.4
2017-01-23T09:25:01.369Z,-2.42
2017-01-23T09:26:10.025Z,-2.26
2017-01-23T09:27:18.673Z,-2.2
2017-01-23T09:28:27.324Z,-2.05
2017-01-23T09:29:35.972Z,-2.03
2017-01-23T09:30:44.648Z,-1.94
2017-01-23T09:31:53.298Z,-1.85
2017-01-23T09:33:01.950Z,-1.9
2017-01-23T09:34:10.600Z,-1.9
2017-01-23T09:35:19.251Z,-1.72
2017-01-23T09:36:27.901Z,-1.59
2017-01-23T09:37:36.564Z,-1.59
2017-01-23T09:38:45.216Z,-1.64
2017-01-23T09:39:53.866Z,-1.54
2017-01-23T09:41:02.526Z,-1.54
2017-01-23T09:42:11.179Z,-1.59
2017-01-23T09:43:19.842Z,-1.64
2017-01-23T09:44:28.520Z,-1.67
2017-01-23T09:45:37.168Z,-1.43
2017-01-23T09:46:45.820Z,-1.31
2017-01-23T09:47:54.471Z,-1.33
2017-01-23T09:49:03.118Z,-1.2
2017-01-23T09:50:11.767Z,-1.23
2017-01-23T09:51:20.428Z,-1.02
2017-01-23T09:52:29.076Z,-1.07
2017-01-23T09:53:37.732Z,-1.07
2017-01-23T09:54:46.386Z,-0.98
2017-01-23T09:55:55.035Z,-0.83
2017-01-23T09:57:03.699Z,-0.94
2017-01-23T09:58:12.356Z,-1.04
2017-01-23T09:59:21.009Z,-0.85
2017-01-23T10:00:29.653Z,-1.04
2017-01-23T10:01:38.307Z,-0.97
2017-01-23T10:02:46.960Z,-0.95
2017-01-23T10:03:55.612Z,-1.09
2017-01-23T10:05:04.264Z,-1.04
2017-01-23T10:06:12.919Z,-1.12
2017-01-23T10:07:21.569Z,-1.05
2017-01-23T10:08:30.231Z,-1.1
2017-01-23T10:09:38.883Z,-0.98
2017-01-23T10:10:47.536Z,-0.94
2017-01-23T10:11:56.186Z,-1.04
2017-01-23T10:13:04.872Z,-0.94
2017-01-23T10:14:13.522Z,-0.86
2017-01-23T10:15:22.179Z,-0.76
2017-01-23T10:16:30.838Z,-0.51
2017-01-23T10:17:39.491Z,-0.49
2017-01-23T10:18:48.139Z,-0.54
2017-01-23T10:19:56.790Z,-0.58
2017-01-23T10:21:05.441Z,-0.69
2017-01-23T10:22:14.094Z,-0.75
2017-01-23T10:23:22.748Z,-0.83
2017-01-23T10:24:31.397Z,-0.89
2017-01-23T10:25:40.049Z,-0.83
2017-01-23T10:26:48.706Z,-0.7
2017-01-23T10:27:57.355Z,-0.54
2017-01-23T10:29:06.015Z,-0.54
2017-01-23T10:30:14.694Z,-0.55
2017-01-23T10:31:23.344Z,-0.8
2017-01-23T10:32:31.994Z,-0.86
2017-01-23T10:33:40.643Z,-0.86
2017-01-23T10:34:49.296Z,-0.86
2017-01-23T10:35:57.946Z,-0.83
2017-01-23T10:37:06.600Z,-0.91
2017-01-23T10:38:15.252Z,-0.75
2017-01-23T10:39:23.906Z,-0.62
2017-01-23T10:40:32.570Z,-0.57
2017-01-23T10:41:41.230Z,-0.52
2017-01-23T10:42:49.878Z,-0.55
2017-01-23T10:43:58.534Z,-0.54
2017-01-23T10:45:07.185Z,-0.7
2017-01-23T10:46:15.868Z,-0.72
2017-01-23T10:47:24.527Z,-0.92
2017-01-23T10:48:33.178Z,-0.78
2017-01-23T10:49:41.827Z,-0.78
2017-01-23T10:50:50.481Z,-0.8
2017-01-23T10:51:59.126Z,-0.7
2017-01-23T10:53:07.776Z,-0.7
2017-01-23T10:54:16.425Z,-0.67
2017-01-23T10:55:25.082Z,-0.62
2017-01-23T10:56:33.736Z,-0.75
2017-01-23T10:57:42.386Z,-0.7
2017-01-23T10:58:51.042Z,-0.7
2017-01-23T10:59:59.688Z,-0.75
2017-01-23T11:01:08.341Z,-0.73
2017-01-23T11:02:16.989Z,-0.76
2017-01-23T11:03:25.664Z,-0.58
2017-01-23T11:04:34.318Z,-0.51
2017-01-23T11:05:42.970Z,-0.62
2017-01-23T11:06:51.622Z,-0.61
2017-01-23T11:08:00.272Z,-0.55
2017-01-23T11:09:08.923Z,-0.57
2017-01-23T11:10:17.576Z,-0.69
2017-01-23T11:11:26.225Z,-0.89
2017-01-23T11:12:34.881Z,-0.7
2017-01-23T11:13:43.537Z,-0.62
2017-01-23T11:14:52.186Z,-0.6
2017-01-23T11:16:00.843Z,-0.64
2017-01-23T11:17:09.504Z,-0.52
2017-01-23T11:18:18.155Z,-0.46
2017-01-23T11:19:26.804Z,-0.46
2017-01-23T11:20:35.458Z,-0.43
2017-01-23T11:21:44.105Z,-0.44
2017-01-23T11:22:52.762Z,-0.26
2017-01-23T11:24:01.408Z,-0.22
2017-01-23T11:25:10.061Z,-0.31
2017-01-23T11:26:18.716Z,-0.29
2017-01-23T11:27:27.788Z,-0.28
2017-01-23T11:28:36.435Z,-0.18
2017-01-23T11:29:45.082Z,-0.14
2017-01-23T11:30:53.730Z,-0.18
2017-01-23T11:32:02.381Z,-0.21
2017-01-23T11:33:11.046Z,-0.23
2017-01-23T11:34:19.697Z,-0.18
2017-01-23T11:35:28.356Z,-0.16
2017-01-23T11:36:37.013Z,-0.28
2017-01-23T11:37:45.667Z,-0.25
2017-01-23T11:38:54.319Z,-0.15
2017-01-23T11:40:02.975Z,-0.11
2017-01-23T11:41:11.626Z,-0.08
2017-01-23T11:42:20.282Z,-0.03
2017-01-23T11:43:28.929Z,-0.18
2017-01-23T11:44:37.584Z,-0.11
2017-01-23T11:45:46.240Z,-0.19
2017-01-23T11:46:54.893Z,-0.21
2017-01-23T11:48:03.546Z,-0.22
2017-01-23T11:49:12.196Z,-0.25
2017-01-23T11:50:20.843Z,-0.14
2017-01-23T11:51:29.495Z,-0.11
2017-01-23T11:52:38.157Z,-0.11
2017-01-23T11:53:46.834Z,-0.05
2017-01-23T11:54:55.492Z,0.02
2017-01-23T11:56:04.151Z,0
2017-01-23T11:57:12.807Z,-0.03
2017-01-23T11:58:21.454Z,0.02
2017-01-23T11:59:30.107Z,0.11
2017-01-23T12:00:38.759Z,0.04
2017-01-23T12:01:47.409Z,0.02
2017-01-23T12:02:56.061Z,0.13
2017-01-23T12:04:04.714Z,0.14
2017-01-23T12:05:13.367Z,0.03
2017-01-23T12:06:22.026Z,0.03
2017-01-23T12:07:30.677Z,0.11
2017-01-23T12:08:39.338Z,0.14
2017-01-23T12:09:47.994Z,0.07
2017-01-23T12:10:56.639Z,0.13
2017-01-23T12:12:05.296Z,0.18
2017-01-23T12:13:13.945Z,0.2
2017-01-23T12:14:22.596Z,0.29
2017-01-23T12:15:31.249Z,0.24
2017-01-23T12:16:39.902Z,0.26
2017-01-23T12:17:48.550Z,0.36
2017-01-23T12:18:57.201Z,0.31
2017-01-23T12:20:05.857Z,0.17
2017-01-23T12:21:14.507Z,0.24
2017-01-23T12:22:23.161Z,0.15
2017-01-23T12:23:31.808Z,0.31
2017-01-23T12:24:40.459Z,0.2
2017-01-23T12:25:49.114Z,0.11
2017-01-23T12:26:57.795Z,0.14
2017-01-23T12:28:06.458Z,0.2
2017-01-23T12:29:15.108Z,0.23
2017-01-23T12:30:23.778Z,0.26
2017-01-23T12:31:32.428Z,0.29
2017-01-23T12:32:41.077Z,0.31
2017-01-23T12:33:49.729Z,0.36
2017-01-23T12:34:58.404Z,0.32
2017-01-23T12:36:07.063Z,0.23
2017-01-23T12:37:15.718Z,0.32
2017-01-23T12:38:24.373Z,0.39
2017-01-23T12:39:33.025Z,0.24
2017-01-23T12:40:41.677Z,0.39
2017-01-23T12:41:50.332Z,0.24
2017-01-23T12:42:58.986Z,0.13
2017-01-23T12:44:07.637Z,0.35
2017-01-23T12:45:16.284Z,0.26
2017-01-23T12:46:24.931Z,0.32
2017-01-23T12:47:33.583Z,0.33
2017-01-23T12:48:42.230Z,0.38
2017-01-23T12:49:50.883Z,0.44
2017-01-23T12:50:59.535Z,0.38
2017-01-23T12:52:08.181Z,0.5
2017-01-23T12:53:16.836Z,0.46
2017-01-23T12:54:25.491Z,0.6
2017-01-23T12:55:34.148Z,0.6
2017-01-23T12:56:42.798Z,0.6
2017-01-23T12:57:51.454Z,0.62
2017-01-23T12:59:00.500Z,0.62
2017-01-23T13:00:09.163Z,0.58
2017-01-23T13:01:17.816Z,0.58
2017-01-23T13:02:26.471Z,0.62
2017-01-23T13:03:35.118Z,0.57
2017-01-23T13:04:43.767Z,0.5
2017-01-23T13:05:52.421Z,0.44
2017-01-23T13:07:01.080Z,0.58
2017-01-23T13:08:09.737Z,0.6
2017-01-23T13:09:18.398Z,0.61
2017-01-23T13:10:27.051Z,0.58
2017-01-23T13:11:35.708Z,0.72
2017-01-23T13:12:44.360Z,0.61
2017-01-23T13:13:53.014Z,0.55
2017-01-23T13:15:01.664Z,0.49
2017-01-23T13:16:10.320Z,0.46
2017-01-23T13:17:18.977Z,0.57
2017-01-23T13:18:27.629Z,0.57
2017-01-23T13:19:36.280Z,0.53
2017-01-23T13:20:44.959Z,0.47
2017-01-23T13:21:53.620Z,0.5
2017-01-23T13:23:02.273Z,0.5
2017-01-23T13:24:10.927Z,0.55
2017-01-23T13:25:19.581Z,0.58
2017-01-23T13:26:28.229Z,0.57
2017-01-23T13:27:36.879Z,0.6
2017-01-23T13:28:45.540Z,0.57
2017-01-23T13:29:54.189Z,0.53
2017-01-23T13:31:02.845Z,0.46
2017-01-23T13:32:11.523Z,0.53
2017-01-23T13:33:20.170Z,0.66
2017-01-23T13:34:28.834Z,0.62
2017-01-23T13:35:37.491Z,0.61
2017-01-23T13:36:46.173Z,0.65
2017-01-23T13:37:54.831Z,0.65
2017-01-23T13:39:03.481Z,0.55
2017-01-23T13:40:12.128Z,0.61
2017-01-23T13:41:20.795Z,0.7
2017-01-23T13:42:29.445Z,0.68
2017-01-23T13:43:38.478Z,0.62
2017-01-23T13:44:47.147Z,0.73
2017-01-23T13:45:55.803Z,0.84
2017-01-23T13:47:04.453Z,0.79
2017-01-23T13:48:13.103Z,0.79
2017-01-23T13:49:21.751Z,0.88
2017-01-23T13:50:30.409Z,0.75
2017-01-23T13:51:39.059Z,0.79
2017-01-23T13:52:47.712Z,0.73
2017-01-23T13:53:56.370Z,0.73
2017-01-23T13:55:05.035Z,0.62
2017-01-23T13:56:13.693Z,0.55
2017-01-23T13:57:22.375Z,0.53
2017-01-23T13:58:31.024Z,0.61
2017-01-23T13:59:39.702Z,0.44
2017-01-23T14:00:48.354Z,0.46
2017-01-23T14:01:57.008Z,0.42
2017-01-23T14:03:05.662Z,0.42
2017-01-23T14:04:14.324Z,0.53
2017-01-23T14:05:22.984Z,0.57
2017-01-23T14:06:31.646Z,0.47
2017-01-23T14:07:40.307Z,0.47
2017-01-23T14:08:48.961Z,0.49
2017-01-23T14:09:57.611Z,0.44
2017-01-23T14:11:06.259Z,0.42
2017-01-23T14:12:14.913Z,0.44
2017-01-23T14:13:23.574Z,0.5
2017-01-23T14:14:32.229Z,0.47
2017-01-23T14:15:40.880Z,0.53
2017-01-23T14:16:49.534Z,0.65
2017-01-23T14:17:58.185Z,0.61
2017-01-23T14:19:06.835Z,0.6
2017-01-23T14:20:15.486Z,0.6
2017-01-23T14:21:24.140Z,0.55
2017-01-23T14:22:32.792Z,0.53
2017-01-23T14:23:41.444Z,0.55
2017-01-23T14:24:50.096Z,0.75
2017-01-23T14:25:58.741Z,0.65
2017-01-23T14:27:07.398Z,0.66
2017-01-23T14:28:16.053Z,0.73
2017-01-23T14:29:24.702Z,0.76
2017-01-23T14:30:33.359Z,0.76
2017-01-23T14:31:42.028Z,0.76
2017-01-23T14:32:50.678Z,0.72
2017-01-23T14:33:59.327Z,0.7
2017-01-23T14:35:07.984Z,0.78
2017-01-23T14:36:16.631Z,0.88
2017-01-23T14:37:25.280Z,0.94
2017-01-23T14:38:33.932Z,0.91
2017-01-23T14:39:42.581Z,1.02
2017-01-23T14:40:51.240Z,1.05
2017-01-23T14:41:59.895Z,0.88
2017-01-23T14:43:08.548Z,0.93
2017-01-23T14:44:17.207Z,0.91
2017-01-23T14:45:25.856Z,0.88
2017-01-23T14:46:34.514Z,0.8
2017-01-23T14:47:43.169Z,0.78
2017-01-23T14:48:51.821Z,0.8
2017-01-23T14:50:00.475Z,0.88
2017-01-23T14:51:09.127Z,0.83
2017-01-23T14:52:17.777Z,0.75
2017-01-23T14:53:26.429Z,0.78